sensor_id;sensor_type;location;lat;lon;timestamp;temperature;humidity
15259;DHT22;34462;51.368;12.364;2024-02-16T00:00:19;10.20;99.90
15259;DHT22;34462;51.368;12.364;2024-02-16T00:02:48;10.20;99.90
15259;DHT22;34462;51.368;12.364;2024-02-16T00:05:16;10.20;99.90
15259;DHT22;34462;51.368;12.364;2024-02-16T00:07:44;10.30;99.90
15259;DHT22;34462;51.368;12.364;2024-02-16T00:10:13;10.40;99.90
15259;DHT22;34462;51.368;12.364;2024-02-16T00:12:43;10.50;99.90
15259;DHT22;34462;51.368;12.364;2024-02-16T00:15:11;10.50;99.90
15259;DHT22;34462;51.368;12.364;2024-02-16T00:17:40;10.40;99.90
15259;DHT22;34462;51.368;12.364;2024-02-16T00:20:08;10.50;99.90
15259;DHT22;34462;51.368;12.364;2024-02-16T00:22:39;10.50;99.90
15259;DHT22;34462;51.368;12.364;2024-02-16T00:25:08;10.50;99.90
15259;DHT22;34462;51.368;12.364;2024-02-16T00:27:36;10.40;99.90
15259;DHT22;34462;51.368;12.364;2024-02-16T00:30:08;10.40;99.90
15259;DHT22;34462;51.368;12.364;2024-02-16T00:32:38;10.40;99.90
15259;DHT22;34462;51.368;12.364;2024-02-16T00:35:07;10.50;99.90
15259;DHT22;34462;51.368;12.364;2024-02-16T00:37:35;10.50;99.90
15259;DHT22;34462;51.368;12.364;2024-02-16T00:40:05;10.40;99.90
15259;DHT22;34462;51.368;12.364;2024-02-16T00:42:35;10.40;99.90
15259;DHT22;34462;51.368;12.364;2024-02-16T00:45:04;10.40;99.90
15259;DHT22;34462;51.368;12.364;2024-02-16T00:47:34;10.30;99.90
15259;DHT22;34462;51.368;12.364;2024-02-16T00:50:03;10.30;99.90
15259;DHT22;34462;51.368;12.364;2024-02-16T00:52:35;10.40;99.90
15259;DHT22;34462;51.368;12.364;2024-02-16T00:55:04;10.30;99.90
15259;DHT22;34462;51.368;12.364;2024-02-16T00:57:33;10.20;99.90
15259;DHT22;34462;51.368;12.364;2024-02-16T01:00:01;10.10;99.90
15259;DHT22;34462;51.368;12.364;2024-02-16T01:02:30;10.10;99.90
15259;DHT22;34462;51.368;12.364;2024-02-16T01:05:01;10.10;99.90
15259;DHT22;34462;51.368;12.364;2024-02-16T01:07:30;10.10;99.90
15259;DHT22;34462;51.368;12.364;2024-02-16T01:09:59;10.10;99.90
15259;DHT22;34462;51.368;12.364;2024-02-16T01:12:30;10.10;99.90
15259;DHT22;34462;51.368;12.364;2024-02-16T01:14:58;10.10;99.90
15259;DHT22;34462;51.368;12.364;2024-02-16T01:17:28;10.20;99.90
15259;DHT22;34462;51.368;12.364;2024-02-16T01:19:57;10.30;99.90
15259;DHT22;34462;51.368;12.364;2024-02-16T01:22:26;10.30;99.90
15259;DHT22;34462;51.368;12.364;2024-02-16T01:24:56;10.30;99.90
15259;DHT22;34462;51.368;12.364;2024-02-16T01:27:24;10.30;99.90
15259;DHT22;34462;51.368;12.364;2024-02-16T01:29:54;10.30;99.90
15259;DHT22;34462;51.368;12.364;2024-02-16T01:32:25;10.30;99.90
15259;DHT22;34462;51.368;12.364;2024-02-16T01:34:54;10.30;99.90
15259;DHT22;34462;51.368;12.364;2024-02-16T01:37:27;10.20;99.90
15259;DHT22;34462;51.368;12.364;2024-02-16T01:39:55;10.10;99.90
15259;DHT22;34462;51.368;12.364;2024-02-16T01:42:23;10.10;99.90
15259;DHT22;34462;51.368;12.364;2024-02-16T01:44:52;10.00;99.90
15259;DHT22;34462;51.368;12.364;2024-02-16T01:47:20;10.00;99.90
15259;DHT22;34462;51.368;12.364;2024-02-16T01:49:48;10.00;99.90
15259;DHT22;34462;51.368;12.364;2024-02-16T01:52:17;10.00;99.90
15259;DHT22;34462;51.368;12.364;2024-02-16T01:54:47;10.00;99.90
15259;DHT22;34462;51.368;12.364;2024-02-16T01:57:16;10.00;99.90
15259;DHT22;34462;51.368;12.364;2024-02-16T01:59:44;10.00;99.90
15259;DHT22;34462;51.368;12.364;2024-02-16T02:02:13;9.90;99.90
15259;DHT22;34462;51.368;12.364;2024-02-16T02:04:41;9.90;99.90
15259;DHT22;34462;51.368;12.364;2024-02-16T02:07:14;9.90;99.90
15259;DHT22;34462;51.368;12.364;2024-02-16T02:09:43;9.80;99.90
15259;DHT22;34462;51.368;12.364;2024-02-16T02:12:12;9.70;99.90
15259;DHT22;34462;51.368;12.364;2024-02-16T02:14:41;9.80;99.90
15259;DHT22;34462;51.368;12.364;2024-02-16T02:17:09;9.80;99.90
15259;DHT22;34462;51.368;12.364;2024-02-16T02:19:38;9.70;99.90
15259;DHT22;34462;51.368;12.364;2024-02-16T02:22:15;9.70;99.90
15259;DHT22;34462;51.368;12.364;2024-02-16T02:24:46;9.80;99.90
15259;DHT22;34462;51.368;12.364;2024-02-16T02:27:15;9.80;99.90
15259;DHT22;34462;51.368;12.364;2024-02-16T02:29:44;9.80;99.90
15259;DHT22;34462;51.368;12.364;2024-02-16T02:32:12;9.80;99.90
15259;DHT22;34462;51.368;12.364;2024-02-16T02:34:41;9.70;99.90
15259;DHT22;34462;51.368;12.364;2024-02-16T02:37:10;9.70;99.90
15259;DHT22;34462;51.368;12.364;2024-02-16T02:39:40;9.70;99.90
15259;DHT22;34462;51.368;12.364;2024-02-16T02:42:11;9.80;99.90
15259;DHT22;34462;51.368;12.364;2024-02-16T02:44:39;9.80;99.90
15259;DHT22;34462;51.368;12.364;2024-02-16T02:47:11;9.70;99.90
15259;DHT22;34462;51.368;12.364;2024-02-16T02:49:39;9.80;99.90
15259;DHT22;34462;51.368;12.364;2024-02-16T02:52:07;9.80;99.90
15259;DHT22;34462;51.368;12.364;2024-02-16T02:54:35;9.80;99.90
15259;DHT22;34462;51.368;12.364;2024-02-16T02:57:05;9.80;99.90
15259;DHT22;34462;51.368;12.364;2024-02-16T02:59:34;9.80;99.90
15259;DHT22;34462;51.368;12.364;2024-02-16T03:02:06;9.80;99.90
15259;DHT22;34462;51.368;12.364;2024-02-16T03:04:35;9.90;99.90
15259;DHT22;34462;51.368;12.364;2024-02-16T03:07:03;9.90;99.90
15259;DHT22;34462;51.368;12.364;2024-02-16T03:09:32;10.00;99.90
15259;DHT22;34462;51.368;12.364;2024-02-16T03:12:00;10.00;99.90
15259;DHT22;34462;51.368;12.364;2024-02-16T03:14:30;10.00;99.90
15259;DHT22;34462;51.368;12.364;2024-02-16T03:16:58;10.00;99.90
15259;DHT22;34462;51.368;12.364;2024-02-16T03:19:27;10.00;99.90
15259;DHT22;34462;51.368;12.364;2024-02-16T03:21:55;10.00;99.90
15259;DHT22;34462;51.368;12.364;2024-02-16T03:24:23;10.00;99.90
15259;DHT22;34462;51.368;12.364;2024-02-16T03:26:52;9.90;99.90
15259;DHT22;34462;51.368;12.364;2024-02-16T03:29:20;9.90;99.90
15259;DHT22;34462;51.368;12.364;2024-02-16T03:31:50;9.90;99.90
15259;DHT22;34462;51.368;12.364;2024-02-16T03:34:18;9.90;99.90
15259;DHT22;34462;51.368;12.364;2024-02-16T03:36:47;9.90;99.90
15259;DHT22;34462;51.368;12.364;2024-02-16T03:39:15;9.90;99.90
15259;DHT22;34462;51.368;12.364;2024-02-16T03:41:50;9.80;99.90
15259;DHT22;34462;51.368;12.364;2024-02-16T03:44:18;9.90;99.90
15259;DHT22;34462;51.368;12.364;2024-02-16T03:46:52;9.80;99.90
15259;DHT22;34462;51.368;12.364;2024-02-16T03:49:22;9.80;99.90
15259;DHT22;34462;51.368;12.364;2024-02-16T03:51:51;9.80;99.90
15259;DHT22;34462;51.368;12.364;2024-02-16T03:54:19;9.90;99.90
15259;DHT22;34462;51.368;12.364;2024-02-16T03:56:47;9.90;99.90
15259;DHT22;34462;51.368;12.364;2024-02-16T03:59:15;9.90;99.90
15259;DHT22;34462;51.368;12.364;2024-02-16T04:01:44;9.90;99.90
15259;DHT22;34462;51.368;12.364;2024-02-16T04:04:14;9.80;99.90
15259;DHT22;34462;51.368;12.364;2024-02-16T04:06:42;9.80;99.90
15259;DHT22;34462;51.368;12.364;2024-02-16T04:09:11;9.80;99.90
15259;DHT22;34462;51.368;12.364;2024-02-16T04:11:39;9.80;99.90
15259;DHT22;34462;51.368;12.364;2024-02-16T04:14:12;9.90;99.90
15259;DHT22;34462;51.368;12.364;2024-02-16T04:16:42;9.90;99.90
15259;DHT22;34462;51.368;12.364;2024-02-16T04:19:11;9.80;99.90
15259;DHT22;34462;51.368;12.364;2024-02-16T04:21:41;9.90;99.90
15259;DHT22;34462;51.368;12.364;2024-02-16T04:24:14;10.00;99.90
15259;DHT22;34462;51.368;12.364;2024-02-16T04:26:42;10.00;99.90
15259;DHT22;34462;51.368;12.364;2024-02-16T04:29:10;10.10;99.90
15259;DHT22;34462;51.368;12.364;2024-02-16T04:31:39;10.20;99.90
15259;DHT22;34462;51.368;12.364;2024-02-16T04:34:09;10.20;99.90
15259;DHT22;34462;51.368;12.364;2024-02-16T04:36:37;10.30;99.90
15259;DHT22;34462;51.368;12.364;2024-02-16T04:39:07;10.50;99.90
15259;DHT22;34462;51.368;12.364;2024-02-16T04:41:36;10.50;99.90
15259;DHT22;34462;51.368;12.364;2024-02-16T04:44:06;10.50;99.90
15259;DHT22;34462;51.368;12.364;2024-02-16T04:46:34;10.60;99.90
15259;DHT22;34462;51.368;12.364;2024-02-16T04:49:03;10.60;99.90
15259;DHT22;34462;51.368;12.364;2024-02-16T04:51:31;10.70;99.90
15259;DHT22;34462;51.368;12.364;2024-02-16T04:53:59;10.70;99.90
15259;DHT22;34462;51.368;12.364;2024-02-16T04:56:29;10.70;99.90
15259;DHT22;34462;51.368;12.364;2024-02-16T04:58:57;10.60;99.90
15259;DHT22;34462;51.368;12.364;2024-02-16T05:01:26;10.60;99.90
15259;DHT22;34462;51.368;12.364;2024-02-16T05:03:57;10.60;99.90
15259;DHT22;34462;51.368;12.364;2024-02-16T05:06:27;10.60;99.90
15259;DHT22;34462;51.368;12.364;2024-02-16T05:08:56;10.50;99.90
15259;DHT22;34462;51.368;12.364;2024-02-16T05:11:25;10.50;99.90
15259;DHT22;34462;51.368;12.364;2024-02-16T05:13:55;10.50;99.90
15259;DHT22;34462;51.368;12.364;2024-02-16T05:16:25;10.40;99.90
15259;DHT22;34462;51.368;12.364;2024-02-16T05:18:55;10.40;99.90
15259;DHT22;34462;51.368;12.364;2024-02-16T05:21:24;10.40;99.90
15259;DHT22;34462;51.368;12.364;2024-02-16T05:23:52;10.40;99.90
15259;DHT22;34462;51.368;12.364;2024-02-16T05:26:23;10.40;99.90
15259;DHT22;34462;51.368;12.364;2024-02-16T05:28:51;10.40;99.90
15259;DHT22;34462;51.368;12.364;2024-02-16T05:31:21;10.50;99.90
15259;DHT22;34462;51.368;12.364;2024-02-16T05:33:50;10.50;99.90
15259;DHT22;34462;51.368;12.364;2024-02-16T05:36:19;10.50;99.90
15259;DHT22;34462;51.368;12.364;2024-02-16T05:38:51;10.60;99.90
15259;DHT22;34462;51.368;12.364;2024-02-16T05:41:22;10.60;99.90
15259;DHT22;34462;51.368;12.364;2024-02-16T05:43:50;10.60;99.90
15259;DHT22;34462;51.368;12.364;2024-02-16T05:46:18;10.60;99.90
15259;DHT22;34462;51.368;12.364;2024-02-16T05:48:48;10.60;99.90
15259;DHT22;34462;51.368;12.364;2024-02-16T05:51:17;10.50;99.90
15259;DHT22;34462;51.368;12.364;2024-02-16T05:53:46;10.50;99.90
15259;DHT22;34462;51.368;12.364;2024-02-16T05:56:14;10.60;99.90
15259;DHT22;34462;51.368;12.364;2024-02-16T05:58:42;10.70;99.90
15259;DHT22;34462;51.368;12.364;2024-02-16T06:01:11;10.60;99.90
15259;DHT22;34462;51.368;12.364;2024-02-16T06:03:43;10.60;99.90
15259;DHT22;34462;51.368;12.364;2024-02-16T06:06:11;10.60;99.90
15259;DHT22;34462;51.368;12.364;2024-02-16T06:08:40;10.70;99.90
15259;DHT22;34462;51.368;12.364;2024-02-16T06:11:08;10.70;99.90
15259;DHT22;34462;51.368;12.364;2024-02-16T06:13:37;10.70;99.90
15259;DHT22;34462;51.368;12.364;2024-02-16T06:16:06;10.80;99.90
15259;DHT22;34462;51.368;12.364;2024-02-16T06:18:35;10.80;99.90
15259;DHT22;34462;51.368;12.364;2024-02-16T06:21:07;10.80;99.90
15259;DHT22;34462;51.368;12.364;2024-02-16T06:23:35;10.90;99.90
15259;DHT22;34462;51.368;12.364;2024-02-16T06:26:06;10.80;99.90
15259;DHT22;34462;51.368;12.364;2024-02-16T06:28:34;10.80;99.90
15259;DHT22;34462;51.368;12.364;2024-02-16T06:31:03;10.70;99.90
15259;DHT22;34462;51.368;12.364;2024-02-16T06:33:31;10.80;99.90
15259;DHT22;34462;51.368;12.364;2024-02-16T06:36:00;10.90;99.90
15259;DHT22;34462;51.368;12.364;2024-02-16T06:38:30;11.10;99.90
15259;DHT22;34462;51.368;12.364;2024-02-16T06:40:58;11.00;99.90
15259;DHT22;34462;51.368;12.364;2024-02-16T06:43:26;11.00;99.90
15259;DHT22;34462;51.368;12.364;2024-02-16T06:45:54;11.10;99.90
15259;DHT22;34462;51.368;12.364;2024-02-16T06:48:23;11.10;99.90
15259;DHT22;34462;51.368;12.364;2024-02-16T06:50:52;11.00;99.90
15259;DHT22;34462;51.368;12.364;2024-02-16T06:53:21;11.00;99.90
15259;DHT22;34462;51.368;12.364;2024-02-16T06:55:50;11.00;99.90
15259;DHT22;34462;51.368;12.364;2024-02-16T06:58:19;11.00;99.90
15259;DHT22;34462;51.368;12.364;2024-02-16T07:00:48;11.00;99.90
15259;DHT22;34462;51.368;12.364;2024-02-16T07:03:16;11.00;99.90
15259;DHT22;34462;51.368;12.364;2024-02-16T07:05:45;11.00;99.90
15259;DHT22;34462;51.368;12.364;2024-02-16T07:08:13;11.00;99.90
15259;DHT22;34462;51.368;12.364;2024-02-16T07:10:42;11.00;99.90
15259;DHT22;34462;51.368;12.364;2024-02-16T07:13:12;11.10;99.90
15259;DHT22;34462;51.368;12.364;2024-02-16T07:15:40;11.20;99.90
15259;DHT22;34462;51.368;12.364;2024-02-16T07:18:10;11.20;99.90
15259;DHT22;34462;51.368;12.364;2024-02-16T07:20:40;11.20;99.90
15259;DHT22;34462;51.368;12.364;2024-02-16T07:23:09;11.20;99.90
15259;DHT22;34462;51.368;12.364;2024-02-16T07:25:37;11.30;99.90
15259;DHT22;34462;51.368;12.364;2024-02-16T07:28:05;11.30;99.90
15259;DHT22;34462;51.368;12.364;2024-02-16T07:30:35;11.20;99.90
15259;DHT22;34462;51.368;12.364;2024-02-16T07:33:09;11.20;99.90
15259;DHT22;34462;51.368;12.364;2024-02-16T07:35:38;11.40;99.90
15259;DHT22;34462;51.368;12.364;2024-02-16T07:38:06;11.40;99.90
15259;DHT22;34462;51.368;12.364;2024-02-16T07:40:34;11.50;99.90
15259;DHT22;34462;51.368;12.364;2024-02-16T07:43:03;11.60;99.90
15259;DHT22;34462;51.368;12.364;2024-02-16T07:45:32;11.70;99.90
15259;DHT22;34462;51.368;12.364;2024-02-16T07:48:02;11.80;99.90
15259;DHT22;34462;51.368;12.364;2024-02-16T07:50:32;11.80;99.90
15259;DHT22;34462;51.368;12.364;2024-02-16T07:53:01;11.80;99.90
15259;DHT22;34462;51.368;12.364;2024-02-16T07:55:30;11.90;99.90
15259;DHT22;34462;51.368;12.364;2024-02-16T07:57:58;12.00;99.90
15259;DHT22;34462;51.368;12.364;2024-02-16T08:00:27;11.90;99.90
15259;DHT22;34462;51.368;12.364;2024-02-16T08:02:55;12.00;99.90
15259;DHT22;34462;51.368;12.364;2024-02-16T08:05:27;12.00;99.90
15259;DHT22;34462;51.368;12.364;2024-02-16T08:07:56;12.00;99.90
15259;DHT22;34462;51.368;12.364;2024-02-16T08:10:27;12.00;99.90
15259;DHT22;34462;51.368;12.364;2024-02-16T08:12:55;12.00;99.90
15259;DHT22;34462;51.368;12.364;2024-02-16T08:15:27;11.90;99.90
15259;DHT22;34462;51.368;12.364;2024-02-16T08:17:55;11.90;99.90
15259;DHT22;34462;51.368;12.364;2024-02-16T08:20:28;12.10;99.90
15259;DHT22;34462;51.368;12.364;2024-02-16T08:22:57;12.20;99.90
15259;DHT22;34462;51.368;12.364;2024-02-16T08:25:27;12.40;99.90
15259;DHT22;34462;51.368;12.364;2024-02-16T08:27:57;12.50;99.90
15259;DHT22;34462;51.368;12.364;2024-02-16T08:30:27;12.70;99.90
15259;DHT22;34462;51.368;12.364;2024-02-16T08:32:56;12.90;99.90
15259;DHT22;34462;51.368;12.364;2024-02-16T08:35:28;12.90;99.90
15259;DHT22;34462;51.368;12.364;2024-02-16T08:37:57;13.10;99.90
15259;DHT22;34462;51.368;12.364;2024-02-16T08:40:27;13.30;99.90
15259;DHT22;34462;51.368;12.364;2024-02-16T08:42:55;13.50;99.90
15259;DHT22;34462;51.368;12.364;2024-02-16T08:45:27;13.70;99.90
15259;DHT22;34462;51.368;12.364;2024-02-16T08:47:55;13.90;99.90
15259;DHT22;34462;51.368;12.364;2024-02-16T08:50:28;14.10;99.90
15259;DHT22;34462;51.368;12.364;2024-02-16T08:52:57;14.20;99.90
15259;DHT22;34462;51.368;12.364;2024-02-16T08:55:25;14.10;99.90
15259;DHT22;34462;51.368;12.364;2024-02-16T08:57:53;14.00;99.90
15259;DHT22;34462;51.368;12.364;2024-02-16T09:00:23;13.80;99.90
15259;DHT22;34462;51.368;12.364;2024-02-16T09:02:53;13.70;99.90
15259;DHT22;34462;51.368;12.364;2024-02-16T09:05:22;13.60;99.90
15259;DHT22;34462;51.368;12.364;2024-02-16T09:07:52;13.60;99.90
15259;DHT22;34462;51.368;12.364;2024-02-16T09:10:20;13.50;99.90
15259;DHT22;34462;51.368;12.364;2024-02-16T09:12:49;13.50;99.90
15259;DHT22;34462;51.368;12.364;2024-02-16T09:15:18;13.40;99.90
15259;DHT22;34462;51.368;12.364;2024-02-16T09:17:47;13.50;99.90
15259;DHT22;34462;51.368;12.364;2024-02-16T09:20:15;13.60;99.90
15259;DHT22;34462;51.368;12.364;2024-02-16T09:22:49;13.70;99.90
15259;DHT22;34462;51.368;12.364;2024-02-16T09:25:19;13.80;99.90
15259;DHT22;34462;51.368;12.364;2024-02-16T09:27:49;13.80;99.90
15259;DHT22;34462;51.368;12.364;2024-02-16T09:30:17;13.90;99.90
15259;DHT22;34462;51.368;12.364;2024-02-16T09:32:48;14.00;99.90
15259;DHT22;34462;51.368;12.364;2024-02-16T09:35:17;14.20;99.90
15259;DHT22;34462;51.368;12.364;2024-02-16T09:37:45;14.20;99.90
15259;DHT22;34462;51.368;12.364;2024-02-16T09:40:13;14.40;99.90
15259;DHT22;34462;51.368;12.364;2024-02-16T09:42:48;14.40;99.90
15259;DHT22;34462;51.368;12.364;2024-02-16T09:45:18;14.50;99.90
15259;DHT22;34462;51.368;12.364;2024-02-16T09:47:46;14.50;99.90
15259;DHT22;34462;51.368;12.364;2024-02-16T09:50:26;14.60;99.90
15259;DHT22;34462;51.368;12.364;2024-02-16T09:52:56;14.80;99.90
15259;DHT22;34462;51.368;12.364;2024-02-16T09:55:26;14.80;99.90
15259;DHT22;34462;51.368;12.364;2024-02-16T09:58:01;15.00;99.90
15259;DHT22;34462;51.368;12.364;2024-02-16T10:00:31;15.20;99.90
15259;DHT22;34462;51.368;12.364;2024-02-16T10:03:01;15.50;99.90
15259;DHT22;34462;51.368;12.364;2024-02-16T10:05:30;15.60;99.90
15259;DHT22;34462;51.368;12.364;2024-02-16T10:08:11;15.70;99.90
15259;DHT22;34462;51.368;12.364;2024-02-16T10:10:40;15.70;99.90
15259;DHT22;34462;51.368;12.364;2024-02-16T10:13:09;15.70;99.90
15259;DHT22;34462;51.368;12.364;2024-02-16T10:15:39;15.70;99.90
15259;DHT22;34462;51.368;12.364;2024-02-16T10:18:07;15.80;99.90
15259;DHT22;34462;51.368;12.364;2024-02-16T10:20:35;15.90;99.90
15259;DHT22;34462;51.368;12.364;2024-02-16T10:23:09;16.00;99.90
15259;DHT22;34462;51.368;12.364;2024-02-16T10:25:39;16.10;99.90
15259;DHT22;34462;51.368;12.364;2024-02-16T10:28:10;16.10;99.90
15259;DHT22;34462;51.368;12.364;2024-02-16T10:30:41;16.10;99.90
15259;DHT22;34462;51.368;12.364;2024-02-16T10:33:11;16.10;99.90
15259;DHT22;34462;51.368;12.364;2024-02-16T10:35:41;16.10;99.90
15259;DHT22;34462;51.368;12.364;2024-02-16T10:38:10;16.10;99.90
15259;DHT22;34462;51.368;12.364;2024-02-16T10:40:40;16.10;99.90
15259;DHT22;34462;51.368;12.364;2024-02-16T10:43:11;16.00;99.90
15259;DHT22;34462;51.368;12.364;2024-02-16T10:45:41;16.00;99.90
15259;DHT22;34462;51.368;12.364;2024-02-16T10:48:11;15.90;99.90
15259;DHT22;34462;51.368;12.364;2024-02-16T10:50:40;15.90;99.90
15259;DHT22;34462;51.368;12.364;2024-02-16T10:53:12;16.00;99.90
15259;DHT22;34462;51.368;12.364;2024-02-16T10:55:45;16.10;99.90
15259;DHT22;34462;51.368;12.364;2024-02-16T10:58:17;15.90;99.90
15259;DHT22;34462;51.368;12.364;2024-02-16T11:00:50;15.90;99.90
15259;DHT22;34462;51.368;12.364;2024-02-16T11:03:23;15.80;99.90
15259;DHT22;34462;51.368;12.364;2024-02-16T11:05:53;15.70;99.90
15259;DHT22;34462;51.368;12.364;2024-02-16T11:08:24;15.60;99.90
15259;DHT22;34462;51.368;12.364;2024-02-16T11:10:56;15.60;99.90
15259;DHT22;34462;51.368;12.364;2024-02-16T11:13:28;15.60;99.90
15259;DHT22;34462;51.368;12.364;2024-02-16T11:16:01;15.40;99.90
15259;DHT22;34462;51.368;12.364;2024-02-16T11:18:37;15.30;99.90
15259;DHT22;34462;51.368;12.364;2024-02-16T11:21:11;15.20;99.90
15259;DHT22;34462;51.368;12.364;2024-02-16T11:23:40;15.30;99.90
15259;DHT22;34462;51.368;12.364;2024-02-16T11:26:11;15.40;99.90
15259;DHT22;34462;51.368;12.364;2024-02-16T11:28:42;15.40;99.90
15259;DHT22;34462;51.368;12.364;2024-02-16T11:31:10;15.30;99.90
15259;DHT22;34462;51.368;12.364;2024-02-16T11:33:43;15.40;99.90
15259;DHT22;34462;51.368;12.364;2024-02-16T11:36:13;15.30;99.90
15259;DHT22;34462;51.368;12.364;2024-02-16T11:38:41;15.20;99.90
15259;DHT22;34462;51.368;12.364;2024-02-16T11:41:10;15.20;99.90
15259;DHT22;34462;51.368;12.364;2024-02-16T11:43:41;15.10;99.90
15259;DHT22;34462;51.368;12.364;2024-02-16T11:46:12;15.00;99.90
15259;DHT22;34462;51.368;12.364;2024-02-16T11:48:41;15.10;99.90
15259;DHT22;34462;51.368;12.364;2024-02-16T11:51:10;15.10;99.90
15259;DHT22;34462;51.368;12.364;2024-02-16T11:53:39;15.20;99.90
15259;DHT22;34462;51.368;12.364;2024-02-16T11:56:07;15.20;99.90
15259;DHT22;34462;51.368;12.364;2024-02-16T11:58:36;15.30;99.90
15259;DHT22;34462;51.368;12.364;2024-02-16T12:01:10;15.50;99.90
15259;DHT22;34462;51.368;12.364;2024-02-16T12:03:41;15.60;99.90
15259;DHT22;34462;51.368;12.364;2024-02-16T12:06:19;15.70;99.90
15259;DHT22;34462;51.368;12.364;2024-02-16T12:08:50;15.60;99.90
15259;DHT22;34462;51.368;12.364;2024-02-16T12:11:20;15.80;99.90
15259;DHT22;34462;51.368;12.364;2024-02-16T12:13:50;15.90;99.90
15259;DHT22;34462;51.368;12.364;2024-02-16T12:16:20;16.10;99.90
15259;DHT22;34462;51.368;12.364;2024-02-16T12:18:48;16.20;99.90
15259;DHT22;34462;51.368;12.364;2024-02-16T12:21:17;16.30;99.90
15259;DHT22;34462;51.368;12.364;2024-02-16T12:23:47;16.40;99.90
15259;DHT22;34462;51.368;12.364;2024-02-16T12:26:15;16.50;99.90
15259;DHT22;34462;51.368;12.364;2024-02-16T12:28:44;16.50;99.90
15259;DHT22;34462;51.368;12.364;2024-02-16T12:31:20;16.50;99.90
15259;DHT22;34462;51.368;12.364;2024-02-16T12:33:49;16.50;99.90
15259;DHT22;34462;51.368;12.364;2024-02-16T12:36:17;16.70;99.90
15259;DHT22;34462;51.368;12.364;2024-02-16T12:38:46;16.80;99.90
15259;DHT22;34462;51.368;12.364;2024-02-16T12:41:14;16.80;99.90
15259;DHT22;34462;51.368;12.364;2024-02-16T12:43:42;16.70;99.90
15259;DHT22;34462;51.368;12.364;2024-02-16T12:46:11;16.80;99.90
15259;DHT22;34462;51.368;12.364;2024-02-16T12:48:40;16.90;99.90
15259;DHT22;34462;51.368;12.364;2024-02-16T12:51:12;16.90;99.90
15259;DHT22;34462;51.368;12.364;2024-02-16T12:56:10;17.00;99.90
15259;DHT22;34462;51.368;12.364;2024-02-16T13:01:09;16.90;99.90
15259;DHT22;34462;51.368;12.364;2024-02-16T13:03:52;16.80;99.90
15259;DHT22;34462;51.368;12.364;2024-02-16T13:06:21;16.80;99.90
15259;DHT22;34462;51.368;12.364;2024-02-16T13:08:54;16.80;99.90
15259;DHT22;34462;51.368;12.364;2024-02-16T13:11:23;16.90;99.90
15259;DHT22;34462;51.368;12.364;2024-02-16T13:13:51;16.90;99.90
15259;DHT22;34462;51.368;12.364;2024-02-16T13:16:20;16.90;99.90
15259;DHT22;34462;51.368;12.364;2024-02-16T13:21:27;16.80;99.90
15259;DHT22;34462;51.368;12.364;2024-02-16T13:23:56;16.80;99.90
15259;DHT22;34462;51.368;12.364;2024-02-16T13:28:55;16.60;99.90
15259;DHT22;34462;51.368;12.364;2024-02-16T13:31:26;16.60;99.90
15259;DHT22;34462;51.368;12.364;2024-02-16T13:33:54;16.60;99.90
15259;DHT22;34462;51.368;12.364;2024-02-16T13:36:24;16.60;99.90
15259;DHT22;34462;51.368;12.364;2024-02-16T13:38:52;16.50;99.90
15259;DHT22;34462;51.368;12.364;2024-02-16T13:48:57;16.50;99.90
15259;DHT22;34462;51.368;12.364;2024-02-16T13:53:56;16.60;99.90
15259;DHT22;34462;51.368;12.364;2024-02-16T13:56:24;16.80;99.90
15259;DHT22;34462;51.368;12.364;2024-02-16T13:58:52;16.80;99.90
15259;DHT22;34462;51.368;12.364;2024-02-16T14:03:50;16.70;99.90
15259;DHT22;34462;51.368;12.364;2024-02-16T14:06:19;16.70;99.90
15259;DHT22;34462;51.368;12.364;2024-02-16T14:16:19;16.40;99.90
15259;DHT22;34462;51.368;12.364;2024-02-16T14:18:47;16.30;99.90
15259;DHT22;34462;51.368;12.364;2024-02-16T14:21:18;16.40;99.90
15259;DHT22;34462;51.368;12.364;2024-02-16T14:23:51;16.40;99.90
15259;DHT22;34462;51.368;12.364;2024-02-16T14:26:20;16.40;99.90
15259;DHT22;34462;51.368;12.364;2024-02-16T14:28:48;16.50;99.90
15259;DHT22;34462;51.368;12.364;2024-02-16T14:31:16;16.50;99.90
15259;DHT22;34462;51.368;12.364;2024-02-16T14:33:49;16.30;99.90
15259;DHT22;34462;51.368;12.364;2024-02-16T14:36:18;16.30;99.90
15259;DHT22;34462;51.368;12.364;2024-02-16T14:38:46;16.30;99.90
15259;DHT22;34462;51.368;12.364;2024-02-16T14:43:49;16.30;99.90
15259;DHT22;34462;51.368;12.364;2024-02-16T14:46:24;16.40;99.90
15259;DHT22;34462;51.368;12.364;2024-02-16T14:48:53;16.40;99.90
15259;DHT22;34462;51.368;12.364;2024-02-16T14:53:51;16.20;99.90
15259;DHT22;34462;51.368;12.364;2024-02-16T14:56:21;16.30;99.90
15259;DHT22;34462;51.368;12.364;2024-02-16T14:58:50;16.30;99.90
15259;DHT22;34462;51.368;12.364;2024-02-16T15:01:18;16.20;99.90
15259;DHT22;34462;51.368;12.364;2024-02-16T15:06:16;16.10;99.90
15259;DHT22;34462;51.368;12.364;2024-02-16T15:08:45;16.20;99.90
15259;DHT22;34462;51.368;12.364;2024-02-16T15:11:13;16.10;99.90
15259;DHT22;34462;51.368;12.364;2024-02-16T15:18:47;15.90;99.90
15259;DHT22;34462;51.368;12.364;2024-02-16T15:23:47;15.90;99.90
15259;DHT22;34462;51.368;12.364;2024-02-16T15:26:16;15.90;99.90
15259;DHT22;34462;51.368;12.364;2024-02-16T15:28:45;15.80;99.90
15259;DHT22;34462;51.368;12.364;2024-02-16T15:31:14;15.70;99.90
15259;DHT22;34462;51.368;12.364;2024-02-16T15:33:43;15.60;99.90
15259;DHT22;34462;51.368;12.364;2024-02-16T15:36:11;15.50;99.90
15259;DHT22;34462;51.368;12.364;2024-02-16T15:38:40;15.50;99.90
15259;DHT22;34462;51.368;12.364;2024-02-16T15:41:09;15.50;99.90
15259;DHT22;34462;51.368;12.364;2024-02-16T15:43:37;15.50;99.90
15259;DHT22;34462;51.368;12.364;2024-02-16T15:46:06;15.40;99.90
15259;DHT22;34462;51.368;12.364;2024-02-16T15:48:35;15.30;99.90
15259;DHT22;34462;51.368;12.364;2024-02-16T15:51:03;15.40;99.90
15259;DHT22;34462;51.368;12.364;2024-02-16T15:53:34;15.30;99.90
15259;DHT22;34462;51.368;12.364;2024-02-16T15:56:02;15.20;99.90
15259;DHT22;34462;51.368;12.364;2024-02-16T15:58:32;15.10;99.90
15259;DHT22;34462;51.368;12.364;2024-02-16T16:01:06;15.00;99.90
15259;DHT22;34462;51.368;12.364;2024-02-16T16:03:35;14.90;99.90
15259;DHT22;34462;51.368;12.364;2024-02-16T16:06:04;14.90;99.90
15259;DHT22;34462;51.368;12.364;2024-02-16T16:08:32;14.80;99.90
15259;DHT22;34462;51.368;12.364;2024-02-16T16:11:01;14.80;99.90
15259;DHT22;34462;51.368;12.364;2024-02-16T16:13:30;14.90;99.90
15259;DHT22;34462;51.368;12.364;2024-02-16T16:15:58;14.90;99.90